Time;durP1;ratioP1;P1;durP2;ratioP2;P2;SDS_P1;SDS_P2;PMS_P1;PMS_P2;Temp;Humidity;BMP_temperature;BMP_pressure;BME280_temperature;BME280_humidity;BME280_pressure;Samples;Min_cycle;Max_cycle;Signal;HPM_P1;HPM_P2
2022/05/07 00:02:08;;;;;;;2.00;0.50;;;;;;;10.76;39.38;100440.63;1725178;82;21401;-49
2022/05/07 00:04:37;;;;;;;2.70;0.50;;;;;;;10.75;39.35;100437.53;1727225;82;21561;-48
2022/05/07 00:07:05;;;;;;;1.27;0.40;;;;;;;10.75;39.52;100439.75;1721212;82;21069;-51
2022/05/07 00:09:35;;;;;;;4.70;0.60;;;;;;;10.75;39.58;100441.09;1725175;82;21014;-48
2022/05/07 00:12:06;;;;;;;2.63;0.40;;;;;;;10.75;39.58;100437.06;1726239;82;21472;-52
2022/05/07 00:14:32;;;;;;;3.37;1.23;;;;;;;10.76;39.59;100440.63;1735766;82;20905;-48
2022/05/07 00:19:43;;;;;;;2.35;0.60;;;;;;;10.74;39.71;100427.22;1726789;82;20947;-47
2022/05/07 00:22:10;;;;;;;4.23;0.60;;;;;;;10.74;39.80;100429.03;1732323;82;21777;-49
2022/05/07 00:24:36;;;;;;;4.57;0.60;;;;;;;10.74;39.84;100425.00;1729479;82;20895;-50
2022/05/07 00:27:03;;;;;;;5.70;0.60;;;;;;;10.73;39.97;100425.93;1727900;82;21041;-47
2022/05/07 00:29:29;;;;;;;1.63;0.50;;;;;;;10.73;39.93;100432.66;1723513;81;21088;-51
2022/05/07 00:31:56;;;;;;;3.37;0.60;;;;;;;10.72;40.15;100429.09;1729389;82;20967;-52
2022/05/07 00:34:24;;;;;;;1.83;0.60;;;;;;;10.71;40.16;100423.79;1726324;82;21096;-50
2022/05/07 00:36:50;;;;;;;5.97;0.70;;;;;;;10.71;40.18;100421.98;1728754;82;21420;-53
2022/05/07 00:39:17;;;;;;;3.57;0.50;;;;;;;10.69;40.28;100423.84;1726801;82;21065;-53
2022/05/07 00:41:43;;;;;;;1.83;0.80;;;;;;;10.69;40.33;100428.34;1724649;82;21335;-46
2022/05/07 00:44:09;;;;;;;2.03;0.70;;;;;;;10.66;40.48;100419.91;1724867;82;21580;-49
2022/05/07 00:46:37;;;;;;;2.33;0.70;;;;;;;10.65;40.48;100422.19;1725249;82;21033;-48
2022/05/07 00:49:04;;;;;;;1.50;0.70;;;;;;;10.64;40.58;100424.46;1723574;82;21496;-48
2022/05/07 00:51:34;;;;;;;6.63;0.60;;;;;;;10.61;40.83;100417.41;1730896;82;21053;-47
2022/05/07 00:54:07;;;;;;;2.83;0.67;;;;;;;10.61;40.87;100422.79;1730446;82;20970;-50
2022/05/07 00:56:36;;;;;;;1.72;0.60;;;;;;;10.58;40.92;100422.02;1723951;82;21406;-45
2022/05/07 00:59:03;;;;;;;5.90;0.63;;;;;;;10.56;40.86;100422.06;1727898;81;21136;-46
2022/05/07 01:01:30;;;;;;;4.63;0.60;;;;;;;10.52;40.90;100421.78;1729188;82;21107;-50
2022/05/07 01:03:57;;;;;;;6.87;0.70;;;;;;;10.50;41.04;100424.11;1726002;82;21057;-46
2022/05/07 01:06:24;;;;;;;2.47;0.70;;;;;;;10.47;41.22;100421.06;1703053;81;21029;-47
2022/05/07 01:08:52;;;;;;;1.03;0.60;;;;;;;10.45;41.32;100422.08;1733624;81;21045;-46
2022/05/07 01:11:19;;;;;;;6.30;0.80;;;;;;;10.41;41.47;100423.98;1730731;80;21641;-53
2022/05/07 01:13:48;;;;;;;2.20;0.60;;;;;;;10.39;41.84;100421.81;1735577;81;21100;-48
2022/05/07 01:16:15;;;;;;;1.63;0.80;;;;;;;10.36;41.95;100422.41;1734406;81;21128;-46
2022/05/07 01:18:41;;;;;;;2.57;0.67;;;;;;;10.33;42.13;100424.73;1732515;81;21512;-46
2022/05/07 01:21:12;;;;;;;3.43;0.70;;;;;;;10.30;42.20;100419.92;1711810;81;20986;-49
2022/05/07 01:23:39;;;;;;;1.70;0.70;;;;;;;10.26;42.44;100419.64;1720573;81;22387;-47
2022/05/07 01:26:05;;;;;;;1.60;0.60;;;;;;;10.21;42.88;100418.44;1732085;81;21369;-46
2022/05/07 01:28:34;;;;;;;1.60;0.73;;;;;;;10.17;43.10;100416.78;1735736;81;21191;-46
2022/05/07 01:31:01;;;;;;;2.00;0.70;;;;;;;10.12;43.19;100414.73;1739071;81;21532;-49
2022/05/07 01:33:27;;;;;;;4.17;0.63;;;;;;;10.07;43.50;100419.38;1738895;81;21096;-46
2022/05/07 01:35:54;;;;;;;2.67;0.70;;;;;;;10.01;43.76;100423.64;1737104;81;21201;-47
2022/05/07 01:38:21;;;;;;;1.00;0.70;;;;;;;9.94;43.84;100421.64;1733210;81;21476;-48
2022/05/07 01:40:47;;;;;;;2.83;0.70;;;;;;;9.87;44.59;100414.23;1734625;81;21056;-46
2022/05/07 01:43:14;;;;;;;1.50;0.60;;;;;;;9.81;44.77;100417.14;1735543;81;21049;-47
2022/05/07 01:45:42;;;;;;;2.63;0.83;;;;;;;9.75;44.67;100411.98;1732700;81;21030;-47
2022/05/07 01:48:11;;;;;;;2.30;0.53;;;;;;;9.70;44.71;100412.59;1730199;81;21934;-47
2022/05/07 01:50:49;;;;;;;2.47;0.73;;;;;;;9.65;44.75;100413.22;1731768;81;21454;-49
2022/05/07 01:53:18;;;;;;;3.67;0.80;;;;;;;9.61;44.95;100412.90;1729137;81;21030;-46
2022/05/07 01:55:46;;;;;;;3.97;0.70;;;;;;;9.56;45.14;100408.16;1731488;81;21131;-51
2022/05/07 01:58:13;;;;;;;1.93;0.70;;;;;;;9.54;45.09;100413.16;1729927;81;21089;-49
2022/05/07 02:00:40;;;;;;;1.30;0.70;;;;;;;9.50;45.20;100408.38;1707607;81;21451;-51
2022/05/07 02:03:07;;;;;;;6.10;0.70;;;;;;;9.48;44.98;100408.41;1707456;81;21131;-50
2022/05/07 02:05:34;;;;;;;4.33;0.60;;;;;;;9.46;44.92;100410.27;1727225;81;22830;-50
2022/05/07 02:08:02;;;;;;;4.17;0.80;;;;;;;9.46;44.98;100406.70;1724063;82;21527;-49
2022/05/07 02:10:29;;;;;;;7.17;0.73;;;;;;;9.44;45.40;100413.95;1727010;82;20974;-48
2022/05/07 02:12:56;;;;;;;3.90;0.80;;;;;;;9.42;45.44;100405.95;1724500;82;21394;-50
2022/05/07 02:18:24;;;;;;;1.97;0.80;;;;;;;9.44;45.46;100405.40;1775490;78;22678;-49
2022/05/07 02:20:53;;;;;;;1.73;0.90;;;;;;;9.40;45.44;100410.48;1734907;80;21124;-50
2022/05/07 02:23:20;;;;;;;2.70;0.73;;;;;;;9.40;45.49;100414.97;1735200;80;21452;-47
2022/05/07 02:25:46;;;;;;;2.33;0.80;;;;;;;9.39;45.58;100415.44;1740485;80;20934;-50
2022/05/07 02:28:14;;;;;;;4.00;0.73;;;;;;;9.38;45.55;100416.36;1735185;80;21001;-48
2022/05/07 02:30:41;;;;;;;1.93;0.90;;;;;;;9.38;45.55;100414.14;1709062;81;21235;-48
2022/05/07 02:33:07;;;;;;;5.13;0.70;;;;;;;9.37;45.64;100416.41;1708269;81;21345;-49
2022/05/07 02:35:35;;;;;;;2.13;0.80;;;;;;;9.36;45.63;100415.52;1706762;81;21584;-48
2022/05/07 02:38:02;;;;;;;1.47;0.67;;;;;;;9.34;45.67;100416.53;1689653;83;21062;-50
2022/05/07 02:40:29;;;;;;;1.97;0.67;;;;;;;9.33;45.77;100416.11;1688943;83;21118;-49
2022/05/07 02:42:58;;;;;;;4.33;0.80;;;;;;;9.31;46.04;100417.50;1689688;83;21046;-49
2022/05/07 02:45:24;;;;;;;4.60;0.87;;;;;;;9.31;46.04;100419.30;1689671;83;21355;-51
2022/05/07 02:47:52;;;;;;;6.97;0.90;;;;;;;9.29;46.00;100415.31;1694147;83;21159;-51
2022/05/07 02:50:20;;;;;;;1.97;0.80;;;;;;;9.28;46.07;100416.70;1692882;83;20983;-52
2022/05/07 02:52:47;;;;;;;2.90;0.70;;;;;;;9.26;45.97;100419.47;1693469;83;20983;-51
2022/05/07 02:55:15;;;;;;;2.43;0.83;;;;;;;9.26;46.21;100426.64;1690505;83;21062;-49
2022/05/07 02:57:43;;;;;;;3.20;0.80;;;;;;;9.24;46.32;100422.66;1683492;83;20922;-50
2022/05/07 03:00:11;;;;;;;1.60;0.77;;;;;;;9.23;46.63;100418.67;1692617;83;21958;-51
2022/05/07 03:02:38;;;;;;;3.20;0.70;;;;;;;9.23;46.75;100427.61;1684869;84;21788;-50
2022/05/07 03:05:06;;;;;;;2.47;0.80;;;;;;;9.22;46.61;100421.82;1687004;84;20878;-50
2022/05/07 03:07:32;;;;;;;2.37;0.77;;;;;;;9.22;46.79;100422.28;1687388;84;20942;-49
2022/05/07 03:10:01;;;;;;;4.30;1.10;;;;;;;9.22;46.75;100422.28;1685269;82;20946;-50
2022/05/07 03:12:28;;;;;;;5.80;0.80;;;;;;;9.20;46.95;100421.45;1687279;84;21844;-49
2022/05/07 03:14:55;;;;;;;4.03;0.80;;;;;;;9.20;47.05;100424.13;1689501;84;20942;-50
2022/05/07 03:17:23;;;;;;;2.60;0.90;;;;;;;9.20;47.60;100424.13;1678032;84;20970;-51
2022/05/07 03:19:49;;;;;;;4.53;0.80;;;;;;;9.20;47.37;100427.70;1722422;81;21034;-51
2022/05/07 03:22:16;;;;;;;4.70;1.10;;;;;;;9.21;47.53;100425.44;1723852;82;21038;-50
2022/05/07 03:24:43;;;;;;;4.90;0.70;;;;;;;9.20;47.84;100426.36;1722558;82;21855;-50
2022/05/07 03:27:09;;;;;;;0.70;0.57;;;;;;;9.20;48.15;100428.16;1698831;82;21466;-51
2022/05/07 03:29:36;;;;;;;5.83;0.90;;;;;;;9.21;48.59;100428.58;1722338;82;21426;-49
2022/05/07 03:32:09;;;;;;;1.97;0.80;;;;;;;9.20;48.68;100423.67;1723884;82;21049;-50
2022/05/07 03:34:35;;;;;;;3.70;0.80;;;;;;;9.20;49.03;100432.19;1725184;82;21445;-48
2022/05/07 03:37:03;;;;;;;3.70;0.80;;;;;;;9.17;49.52;100433.19;1726833;82;21143;-50
2022/05/07 03:39:31;;;;;;;2.63;0.90;;;;;;;9.08;49.94;100431.67;1725664;82;20940;-49
2022/05/07 03:41:57;;;;;;;2.10;0.90;;;;;;;9.02;50.35;100434.98;1721931;82;20906;-49
2022/05/07 03:44:24;;;;;;;2.30;0.90;;;;;;;8.99;50.85;100438.67;1723302;82;21065;-49
2022/05/07 03:46:52;;;;;;;3.60;0.90;;;;;;;8.98;51.22;100438.71;1726857;82;20938;-49
2022/05/07 03:49:20;;;;;;;4.63;1.17;;;;;;;8.97;51.55;100437.83;1721883;82;22127;-49
2022/05/07 03:54:32;;;;;;;2.43;1.00;;;;;;;9.01;51.67;100430.11;1725272;82;21798;-50
2022/05/07 03:56:58;;;;;;;7.50;1.47;;;;;;;9.04;51.52;100429.11;1721299;82;21171;-51
2022/05/07 03:59:26;;;;;;;4.03;1.00;;;;;;;9.08;51.15;100428.98;1722210;82;21417;-48
2022/05/07 04:01:54;;;;;;;2.30;0.80;;;;;;;9.17;50.96;100434.53;1724220;82;21638;-49
2022/05/07 04:04:22;;;;;;;4.13;1.07;;;;;;;9.28;50.63;100435.51;1720111;82;21062;-50
2022/05/07 04:06:49;;;;;;;5.57;1.20;;;;;;;9.41;50.11;100443.61;1720303;82;21085;-52
2022/05/07 04:09:17;;;;;;;1.40;0.90;;;;;;;9.55;49.80;100440.45;1724534;82;21065;-50
2022/05/07 04:11:45;;;;;;;4.57;0.73;;;;;;;9.72;49.21;100438.96;1727193;82;20946;-50
2022/05/07 04:14:12;;;;;;;1.37;0.80;;;;;;;9.90;48.79;100441.95;1723021;82;21127;-50
2022/05/07 04:16:38;;;;;;;2.73;0.93;;;;;;;10.07;48.58;100435.52;1722254;82;21092;-52
2022/05/07 04:19:07;;;;;;;2.03;1.00;;;;;;;10.27;48.63;100437.55;1725323;82;21069;-51
2022/05/07 04:21:34;;;;;;;3.37;0.90;;;;;;;10.47;47.96;100429.59;1722027;82;21058;-51
2022/05/07 04:24:14;;;;;;;1.37;0.70;;;;;;;10.68;47.10;100434.20;1721859;82;21006;-50
2022/05/07 04:26:42;;;;;;;5.77;0.90;;;;;;;10.86;46.59;100427.23;1725111;82;21127;-51
2022/05/07 04:29:09;;;;;;;4.60;0.90;;;;;;;10.97;46.34;100435.78;1722335;82;21136;-51
2022/05/07 04:31:36;;;;;;;11.10;1.00;;;;;;;11.09;46.09;100429.02;1718074;82;21029;-51
2022/05/07 04:34:04;;;;;;;10.40;1.40;;;;;;;11.18;45.96;100437.62;1723787;82;21002;-50
2022/05/07 04:36:32;;;;;;;4.40;0.80;;;;;;;11.25;45.85;100431.03;1723462;82;21045;-50
2022/05/07 04:39:00;;;;;;;3.63;0.90;;;;;;;11.32;46.03;100431.19;1724784;82;21129;-51
2022/05/07 04:41:29;;;;;;;8.03;1.10;;;;;;;11.40;45.90;100440.31;1723818;82;21082;-51
2022/05/07 04:43:56;;;;;;;5.33;0.83;;;;;;;11.48;45.49;100426.08;1721873;82;21082;-51
2022/05/07 04:46:23;;;;;;;5.00;0.83;;;;;;;11.55;45.45;100428.05;1721644;82;21033;-51
2022/05/07 04:48:51;;;;;;;2.37;0.87;;;;;;;11.63;45.01;100429.95;1722792;82;20950;-51
2022/05/07 04:51:18;;;;;;;5.93;1.03;;;;;;;11.71;45.15;100425.11;1722727;82;21074;-50
2022/05/07 04:53:47;;;;;;;3.23;0.90;;;;;;;11.78;45.02;100429.33;1721203;82;21041;-51
2022/05/07 04:56:15;;;;;;;6.43;0.97;;;;;;;11.84;44.28;100420.97;1724379;82;21466;-51
2022/05/07 04:58:44;;;;;;;9.57;1.00;;;;;;;11.90;44.25;100426.13;1722160;82;21053;-50
2022/05/07 05:01:11;;;;;;;2.73;0.90;;;;;;;11.95;44.09;100425.91;1720363;82;21137;-51
2022/05/07 05:03:39;;;;;;;3.27;1.00;;;;;;;12.00;43.91;100428.80;1721197;82;21428;-51
2022/05/07 05:06:07;;;;;;;3.30;0.90;;;;;;;12.07;44.19;100426.73;1722575;82;21042;-52
2022/05/07 05:08:42;;;;;;;1.87;0.70;;;;;;;12.12;43.75;100430.98;1714992;82;21069;-50
2022/05/07 05:11:09;;;;;;;2.30;1.00;;;;;;;12.21;43.58;100434.22;1728224;82;21503;-53
2022/05/07 05:13:36;;;;;;;3.97;0.90;;;;;;;12.28;43.63;100431.17;1719483;82;21032;-53
2022/05/07 05:16:04;;;;;;;1.75;0.85;;;;;;;12.36;44.00;100434.88;1721261;82;21725;-51
2022/05/07 05:18:32;;;;;;;4.70;0.90;;;;;;;12.42;44.07;100427.37;1720872;82;21104;-51
2022/05/07 05:20:59;;;;;;;3.43;0.77;;;;;;;12.50;43.98;100428.41;1721835;82;21150;-51
2022/05/07 05:23:28;;;;;;;5.73;0.90;;;;;;;12.57;43.47;100427.17;1726855;82;21138;-51
2022/05/07 05:25:54;;;;;;;2.57;1.00;;;;;;;12.63;43.38;100428.23;1729170;82;21093;-52
2022/05/07 05:28:29;;;;;;;2.67;0.90;;;;;;;12.72;43.20;100429.64;1723888;82;21451;-52
2022/05/07 05:30:57;;;;;;;2.00;1.00;;;;;;;12.81;43.03;100433.27;1724042;82;21227;-52
2022/05/07 05:33:25;;;;;;;4.53;0.98;;;;;;;12.91;42.33;100431.89;1723750;82;21093;-52
2022/05/07 05:35:59;;;;;;;2.67;0.90;;;;;;;12.98;42.18;100428.42;1723775;82;22646;-52
2022/05/07 05:38:27;;;;;;;1.45;0.80;;;;;;;13.05;42.78;100433.93;1721242;82;21487;-51
2022/05/07 05:40:54;;;;;;;5.10;0.98;;;;;;;13.15;42.77;100432.11;1725755;82;21168;-52
2022/05/07 05:43:20;;;;;;;8.93;1.15;;;;;;;13.27;42.63;100427.07;1721772;82;20914;-52
2022/05/07 05:45:47;;;;;;;2.67;0.80;;;;;;;13.38;42.26;100426.05;1722761;82;20977;-51
2022/05/07 05:48:15;;;;;;;3.47;0.93;;;;;;;13.51;42.19;100433.50;1726491;82;21447;-53
2022/05/07 05:50:42;;;;;;;11.70;1.45;;;;;;;13.64;41.83;100424.28;1723797;82;21035;-51
2022/05/07 05:53:09;;;;;;;6.17;1.42;;;;;;;13.80;41.80;100436.55;1722612;82;21197;-51
2022/05/07 05:55:37;;;;;;;1.42;0.80;;;;;;;13.92;41.62;100435.95;1724043;82;20907;-53
2022/05/07 05:58:03;;;;;;;1.85;1.00;;;;;;;14.03;41.15;100433.06;1725655;82;21381;-50
2022/05/07 06:00:30;;;;;;;4.10;1.07;;;;;;;14.16;40.42;100441.45;1730802;82;21744;-50
2022/05/07 06:02:58;;;;;;;2.95;1.00;;;;;;;14.26;40.29;100440.02;1724565;82;20895;-51
2022/05/07 06:05:26;;;;;;;5.20;1.10;;;;;;;14.37;40.30;100439.45;1726733;82;20903;-51
2022/05/07 06:07:53;;;;;;;2.40;1.00;;;;;;;14.48;39.95;100430.77;1728071;82;20950;-51
2022/05/07 06:10:22;;;;;;;5.12;1.30;;;;;;;14.59;39.49;100427.02;1725525;82;20926;-51
2022/05/07 06:12:48;;;;;;;4.72;1.20;;;;;;;14.67;39.06;100429.70;1724289;82;20994;-53
2022/05/07 06:15:15;;;;;;;1.45;1.12;;;;;;;14.76;39.44;100429.69;1728949;82;21527;-51
2022/05/07 06:17:41;;;;;;;2.75;1.07;;;;;;;14.88;39.52;100430.37;1727897;82;22301;-51
2022/05/07 06:20:08;;;;;;;3.00;1.10;;;;;;;15.03;39.33;100428.64;1720592;82;21409;-53
2022/05/07 06:22:37;;;;;;;3.20;1.22;;;;;;;15.19;38.52;100428.66;1711793;82;21273;-52
2022/05/07 06:28:01;;;;;;;2.87;0.93;;;;;;;15.41;38.37;100430.53;1656285;84;20931;-50
2022/05/07 06:30:28;;;;;;;3.27;1.07;;;;;;;15.56;38.62;100437.84;1716451;82;21751;-52
2022/05/07 06:32:55;;;;;;;5.08;2.10;;;;;;;15.69;38.07;100424.42;1709686;82;21038;-51
2022/05/07 06:35:23;;;;;;;3.92;1.30;;;;;;;15.79;37.92;100425.63;1711884;81;21007;-51
2022/05/07 06:38:09;;;;;;;2.10;1.12;;;;;;;15.92;37.80;100431.19;1712351;82;21016;-52
2022/05/07 06:40:37;;;;;;;5.35;1.07;;;;;;;16.04;37.98;100430.48;1710099;82;20931;-53
2022/05/07 06:43:03;;;;;;;3.00;1.10;;;;;;;16.14;36.63;100424.89;1710293;82;21515;-53
2022/05/07 06:45:32;;;;;;;18.75;4.33;;;;;;;16.21;36.89;100429.85;1715537;82;21427;-52
2022/05/07 06:47:59;;;;;;;16.48;3.95;;;;;;;16.30;36.64;100427.06;1708914;82;21545;-53
2022/05/07 06:50:27;;;;;;;7.87;1.62;;;;;;;16.38;36.69;100427.95;1708536;82;21062;-52
2022/05/07 06:52:54;;;;;;;5.00;1.52;;;;;;;16.46;36.44;100422.43;1711020;82;20958;-54
2022/05/07 06:55:20;;;;;;;7.35;1.67;;;;;;;16.54;36.38;100422.83;1710896;82;21816;-53
2022/05/07 06:57:48;;;;;;;13.22;2.05;;;;;;;16.64;35.68;100415.01;1715380;82;21237;-52
2022/05/07 07:00:15;;;;;;;2.20;1.30;;;;;;;16.72;35.77;100412.68;1710676;82;20939;-52
2022/05/07 07:02:41;;;;;;;7.17;1.50;;;;;;;16.81;35.44;100413.94;1710301;81;21074;-52
2022/05/07 07:05:09;;;;;;;3.08;1.30;;;;;;;16.91;35.18;100415.98;1710901;82;21020;-53
2022/05/07 07:07:36;;;;;;;4.20;1.67;;;;;;;17.01;34.66;100414.92;1713251;82;21126;-52
2022/05/07 07:10:05;;;;;;;13.32;2.20;;;;;;;17.11;35.42;100414.69;1708031;82;20911;-53
2022/05/07 07:12:31;;;;;;;4.17;1.42;;;;;;;17.24;34.98;100420.22;1710394;82;21065;-51
2022/05/07 07:14:58;;;;;;;4.97;1.10;;;;;;;17.36;34.92;100425.72;1711765;82;22107;-53
2022/05/07 07:17:42;;;;;;;4.67;1.30;;;;;;;17.50;34.61;100419.87;1711478;82;21049;-53
2022/05/07 07:20:10;;;;;;;4.22;1.30;;;;;;;17.63;34.21;100418.09;1709714;81;21520;-53
2022/05/07 07:22:37;;;;;;;4.42;2.02;;;;;;;17.73;34.08;100418.75;1711326;82;21070;-54
2022/05/07 07:25:06;;;;;;;5.33;2.02;;;;;;;17.84;33.12;100418.52;1669864;84;20970;-54
2022/05/07 07:27:34;;;;;;;3.35;1.67;;;;;;;17.98;33.39;100419.32;1675001;84;20986;-55
2022/05/07 07:30:00;;;;;;;4.92;1.85;;;;;;;17.98;33.39;100419.32;1669960;84;21061;-54
2022/05/07 07:32:27;;;;;;;3.25;1.20;;;;;;;18.09;33.05;100411.78;1670222;84;21900;-54
2022/05/07 07:34:53;;;;;;;5.97;1.75;;;;;;;18.27;33.43;100409.16;1672871;84;21145;-54
2022/05/07 07:37:20;;;;;;;3.83;1.40;;;;;;;18.27;33.43;100409.16;1677663;84;21109;-53
2022/05/07 07:39:47;;;;;;;17.25;1.65;;;;;;;18.40;32.68;100418.69;1670663;84;21641;-53
2022/05/07 07:42:14;;;;;;;7.12;1.95;;;;;;;18.48;32.15;100423.98;1672021;84;21133;-54
2022/05/07 07:44:40;;;;;;;4.45;1.30;;;;;;;18.54;32.05;100407.19;1669461;84;21615;-54
2022/05/07 07:49:52;;;;;;;25.88;1.98;;;;;;;18.65;31.49;100415.14;1678298;84;21492;-55
2022/05/07 07:52:19;;;;;;;3.15;1.10;;;;;;;18.70;31.08;100417.06;1674027;84;21070;-55
2022/05/07 07:54:45;;;;;;;4.75;1.67;;;;;;;18.75;31.09;100410.29;1671324;83;21767;-52
2022/05/07 07:57:11;;;;;;;1.98;1.22;;;;;;;18.83;31.25;100411.98;1664792;84;21142;-55
2022/05/07 07:59:39;;;;;;;6.72;1.20;;;;;;;18.94;31.03;100412.57;1671897;84;21404;-55
2022/05/07 08:02:07;;;;;;;3.87;1.40;;;;;;;19.03;31.26;100407.81;1664108;84;21108;-55
2022/05/07 08:04:34;;;;;;;3.72;1.40;;;;;;;19.12;30.87;100409.00;1668806;84;21466;-55
2022/05/07 08:12:32;;;;;;;2.35;1.10;;;;;;;19.37;30.34;100410.30;1671325;84;20950;-55
2022/05/07 08:15:00;;;;;;;4.78;1.42;;;;;;;19.46;30.32;100408.25;1671247;84;20946;-53
2022/05/07 08:17:26;;;;;;;2.95;1.10;;;;;;;19.53;28.92;100401.87;1671656;84;21702;-53
2022/05/07 08:19:53;;;;;;;3.98;1.00;;;;;;;19.59;29.18;100402.27;1668210;83;21423;-53
2022/05/07 08:22:19;;;;;;;3.12;1.32;;;;;;;19.67;29.13;100403.55;1673869;84;21172;-54
2022/05/07 08:24:45;;;;;;;4.58;1.00;;;;;;;19.71;29.33;100399.12;1672340;84;21113;-54
2022/05/07 08:27:14;;;;;;;6.10;1.37;;;;;;;19.76;28.50;100399.63;1668434;84;21462;-53
2022/05/07 08:29:40;;;;;;;4.53;1.10;;;;;;;19.80;28.95;100402.52;1666743;84;21129;-54
2022/05/07 08:32:08;;;;;;;3.70;1.10;;;;;;;19.85;29.21;100397.56;1671537;84;21590;-54
2022/05/07 08:34:34;;;;;;;4.17;0.82;;;;;;;19.88;28.74;100397.34;1667279;84;21185;-55
2022/05/07 08:37:02;;;;;;;5.87;0.90;;;;;;;19.91;28.72;100401.19;1669338;84;21568;-54
2022/05/07 08:39:29;;;;;;;7.25;1.10;;;;;;;19.92;28.73;100402.93;1670807;84;21077;-56
2022/05/07 08:41:56;;;;;;;6.03;0.90;;;;;;;19.92;28.64;100397.47;1670906;84;21410;-55
2022/05/07 08:44:23;;;;;;;3.90;1.30;;;;;;;19.97;29.31;100393.03;1668245;84;21073;-54
2022/05/07 08:46:49;;;;;;;3.17;0.90;;;;;;;20.02;29.27;100388.06;1678375;84;21828;-55
2022/05/07 08:49:16;;;;;;;4.35;0.88;;;;;;;20.09;28.51;100385.23;1672994;84;21054;-55
2022/05/07 08:51:42;;;;;;;1.87;1.10;;;;;;;20.14;27.47;100380.30;1673188;84;21096;-54
2022/05/07 08:54:11;;;;;;;4.10;1.00;;;;;;;20.21;27.81;100382.05;1671100;83;21563;-53
2022/05/07 08:56:37;;;;;;;4.33;1.00;;;;;;;20.25;27.90;100383.05;1668461;84;21633;-54
2022/05/07 08:59:03;;;;;;;7.42;1.00;;;;;;;20.28;27.53;100374.61;1668545;84;21158;-53
2022/05/07 09:01:30;;;;;;;5.70;0.80;;;;;;;20.30;26.96;100379.97;1668211;84;21117;-55
2022/05/07 09:03:58;;;;;;;2.17;1.00;;;;;;;20.31;26.90;100386.69;1672420;84;21351;-53
2022/05/07 09:06:26;;;;;;;6.95;0.93;;;;;;;20.30;26.21;100388.17;1677187;84;20935;-54
2022/05/07 09:08:55;;;;;;;1.45;0.80;;;;;;;20.29;26.58;100380.95;1668937;84;22004;-55
2022/05/07 09:11:21;;;;;;;2.45;0.82;;;;;;;20.30;26.19;100374.00;1676233;83;21717;-55
2022/05/07 09:13:47;;;;;;;1.07;0.65;;;;;;;20.31;26.13;100377.61;1671925;84;20927;-55
2022/05/07 09:16:15;;;;;;;2.77;0.90;;;;;;;20.35;25.82;100376.39;1667985;84;20942;-56
2022/05/07 09:18:48;;;;;;;2.37;0.82;;;;;;;20.38;25.76;100375.67;1672442;84;21433;-55
2022/05/07 09:21:24;;;;;;;6.70;0.80;;;;;;;20.45;26.06;100376.55;1679063;84;20950;-55
2022/05/07 09:24:06;;;;;;;4.62;0.93;;;;;;;20.51;25.90;100363.74;1677263;84;21891;-54
2022/05/07 09:26:37;;;;;;;6.97;0.90;;;;;;;20.59;25.94;100374.94;1678961;84;20938;-57
2022/05/07 09:29:07;;;;;;;1.40;0.70;;;;;;;20.66;25.79;100381.19;1679567;84;21866;-55
2022/05/07 09:31:35;;;;;;;1.27;0.90;;;;;;;20.70;25.54;100373.59;1678984;84;20914;-55
2022/05/07 09:36:40;;;;;;;1.87;0.85;;;;;;;20.72;25.67;100376.59;1647150;84;21125;-55
2022/05/07 09:39:07;;;;;;;5.22;0.80;;;;;;;20.73;25.28;100361.92;1674382;84;21129;-54
2022/05/07 09:41:34;;;;;;;1.98;1.10;;;;;;;20.73;25.51;100360.55;1681997;84;22802;-55
2022/05/07 09:44:01;;;;;;;5.75;0.90;;;;;;;20.74;25.88;100358.20;1677207;84;21119;-55
2022/05/07 09:46:30;;;;;;;1.70;0.70;;;;;;;20.77;25.67;100349.72;1675541;84;21639;-56
2022/05/07 09:48:58;;;;;;;2.05;0.75;;;;;;;20.77;25.58;100348.34;1671382;84;23078;-55
2022/05/07 09:51:23;;;;;;;4.58;0.90;;;;;;;20.77;25.65;100344.74;1676239;84;21117;-56
2022/05/07 09:59:20;;;;;;;5.85;1.20;;;;;;;20.93;25.35;100351.20;1674453;84;21112;-56
2022/05/07 10:01:58;;;;;;;5.90;1.00;;;;;;;20.99;25.34;100346.62;1676111;84;21231;-56
2022/05/07 10:04:42;;;;;;;18.40;1.40;;;;;;;21.05;24.83;100346.97;1674439;84;21188;-56
2022/05/07 10:08:01;;;;;;;3.30;1.25;;;;;;;21.11;25.55;100351.94;1666445;84;21152;-54
2022/05/07 10:10:29;;;;;;;3.10;0.95;;;;;;;21.16;25.25;100337.88;1679620;84;21590;-53
2022/05/07 10:13:00;;;;;;;6.65;0.90;;;;;;;21.23;24.96;100337.77;1682303;84;20939;-55
2022/05/07 10:15:27;;;;;;;6.37;1.10;;;;;;;21.29;24.63;100332.27;1679975;84;22182;-55
2022/05/07 10:18:06;;;;;;;12.70;1.07;;;;;;;21.28;24.68;100335.51;1677870;84;20934;-55
2022/05/07 10:20:39;;;;;;;9.85;1.20;;;;;;;21.29;24.74;100329.04;1681318;84;20974;-55
2022/05/07 10:23:08;;;;;;;8.08;1.07;;;;;;;21.32;24.80;100328.80;1684863;84;22394;-55
2022/05/07 10:25:35;;;;;;;3.52;0.90;;;;;;;21.36;24.94;100322.55;1674260;84;22592;-55
2022/05/07 10:28:10;;;;;;;6.20;1.57;;;;;;;21.38;24.71;100324.66;1688042;84;21083;-56
2022/05/07 10:30:49;;;;;;;2.62;0.72;;;;;;;21.37;24.74;100313.33;1676744;84;21042;-55
2022/05/07 10:33:18;;;;;;;4.00;0.90;;;;;;;21.33;24.55;100328.30;1691303;84;22138;-56
2022/05/07 10:35:52;;;;;;;4.30;0.98;;;;;;;21.25;24.26;100319.86;1685136;84;21096;-56
2022/05/07 10:38:28;;;;;;;4.70;1.00;;;;;;;21.14;24.40;100320.21;1678448;84;20938;-53
2022/05/07 10:41:17;;;;;;;2.33;0.80;;;;;;;21.04;24.65;100324.70;1661249;85;21335;-53
2022/05/07 10:44:00;;;;;;;1.60;0.90;;;;;;;20.96;24.87;100319.48;1680996;83;21641;-55
2022/05/07 10:46:39;;;;;;;1.57;0.80;;;;;;;20.91;24.68;100310.80;1677946;84;21061;-55
2022/05/07 10:49:05;;;;;;;2.40;0.85;;;;;;;20.90;25.03;100311.30;1689066;83;20981;-54
2022/05/07 10:51:56;;;;;;;2.45;1.00;;;;;;;20.91;25.24;100304.83;1669433;85;21631;-56
2022/05/07 10:54:26;;;;;;;1.90;0.82;;;;;;;20.93;25.27;100311.02;1673065;84;21600;-56
2022/05/07 10:56:55;;;;;;;3.30;0.80;;;;;;;20.97;25.33;100302.08;1662067;85;21129;-53
2022/05/07 10:59:24;;;;;;;2.20;0.80;;;;;;;20.97;24.59;100301.58;1683716;83;21072;-54
2022/05/07 11:01:51;;;;;;;1.70;1.00;;;;;;;20.97;24.90;100300.70;1678293;84;21073;-54
2022/05/07 11:04:19;;;;;;;4.20;0.90;;;;;;;20.95;25.02;100304.06;1657026;85;21144;-52
2022/05/07 11:06:52;;;;;;;3.37;0.90;;;;;;;20.97;24.69;100296.60;1661404;85;22305;-54
2022/05/07 11:09:23;;;;;;;1.00;0.80;;;;;;;20.98;24.84;100301.95;1681613;83;21089;-55
2022/05/07 11:11:55;;;;;;;2.47;1.00;;;;;;;20.94;24.86;100294.11;1677692;84;21051;-54
2022/05/07 11:14:32;;;;;;;2.45;0.80;;;;;;;20.94;25.11;100288.14;1683055;83;21077;-56
2022/05/07 11:17:01;;;;;;;3.65;0.90;;;;;;;20.95;24.45;100289.88;1677197;84;21133;-56
2022/05/07 11:19:35;;;;;;;4.60;1.10;;;;;;;20.95;24.73;100284.41;1686931;83;21111;-56
2022/05/07 11:22:04;;;;;;;1.77;0.90;;;;;;;20.98;24.92;100284.17;1670017;84;21595;-54
2022/05/07 11:24:31;;;;;;;1.50;0.80;;;;;;;21.02;25.39;100274.69;1676750;84;20935;-54
2022/05/07 11:27:05;;;;;;;4.90;1.00;;;;;;;21.08;24.95;100276.06;1671124;84;20939;-56
2022/05/07 11:29:32;;;;;;;;;;;;;;;21.14;24.71;100264.59;1723868;82;21033;-54
2022/05/07 11:32:01;;;;;;;1.57;0.90;;;;;;;21.17;24.69;100265.75;1717214;82;21122;-55
2022/05/07 11:34:37;;;;;;;5.87;1.10;;;;;;;21.17;24.75;100271.69;1720103;82;20997;-54
2022/05/07 11:37:16;;;;;;;4.17;1.20;;;;;;;21.14;24.45;100264.59;1717666;82;21097;-55
2022/05/07 11:39:50;;;;;;;4.28;1.12;;;;;;;21.09;24.29;100264.13;1719937;82;22047;-54
2022/05/07 11:42:46;;;;;;;10.23;1.10;;;;;;;21.03;24.44;100263.24;1717667;82;21097;-53
2022/05/07 11:45:29;;;;;;;2.80;0.88;;;;;;;20.95;25.06;100260.28;1716131;82;21224;-55
2022/05/07 11:48:14;;;;;;;8.43;1.20;;;;;;;20.91;25.10;100254.70;1718960;82;21080;-55
2022/05/07 11:50:55;;;;;;;3.50;1.00;;;;;;;20.89;25.51;100268.51;1718832;82;21105;-54
2022/05/07 11:53:29;;;;;;;3.50;1.10;;;;;;;20.87;25.59;100252.70;1716791;82;21050;-54
2022/05/07 11:56:09;;;;;;;2.70;1.15;;;;;;;20.84;25.52;100248.84;1718256;82;21927;-55
2022/05/07 11:58:49;;;;;;;2.52;1.10;;;;;;;20.81;25.61;100248.25;1720950;82;22160;-56
2022/05/07 12:01:21;;;;;;;3.60;0.90;;;;;;;20.77;25.98;100250.36;1720380;82;22009;-56
2022/05/07 12:03:49;;;;;;;2.15;0.90;;;;;;;20.73;25.99;100243.41;1722366;81;20931;-56